sensor_id;sensor_type;location;lat;lon;timestamp;P1;durP1;ratioP1;P2;durP2;ratioP2
30729;SDS011;17476;48.458;7.928;2023-04-12T00:01:17;0.30;;;0.30;;
30729;SDS011;17476;48.458;7.928;2023-04-12T00:03:43;0.30;;;0.30;;
30729;SDS011;17476;48.458;7.928;2023-04-12T00:06:14;0.30;;;0.30;;
30729;SDS011;17476;48.458;7.928;2023-04-12T00:08:41;0.20;;;0.20;;
30729;SDS011;17476;48.458;7.928;2023-04-12T00:11:11;0.30;;;0.30;;
30729;SDS011;17476;48.458;7.928;2023-04-12T00:13:37;0.30;;;0.30;;
30729;SDS011;17476;48.458;7.928;2023-04-12T00:16:02;0.30;;;0.30;;
30729;SDS011;17476;48.458;7.928;2023-04-12T00:18:29;0.30;;;0.30;;
30729;SDS011;17476;48.458;7.928;2023-04-12T00:20:54;0.20;;;0.20;;
30729;SDS011;17476;48.458;7.928;2023-04-12T00:23:20;0.30;;;0.30;;
30729;SDS011;17476;48.458;7.928;2023-04-12T00:25:46;0.30;;;0.30;;
30729;SDS011;17476;48.458;7.928;2023-04-12T00:28:12;0.20;;;0.20;;
30729;SDS011;17476;48.458;7.928;2023-04-12T00:30:39;0.30;;;0.30;;
30729;SDS011;17476;48.458;7.928;2023-04-12T00:33:06;0.30;;;0.30;;
30729;SDS011;17476;48.458;7.928;2023-04-12T00:35:32;0.30;;;0.30;;
30729;SDS011;17476;48.458;7.928;2023-04-12T00:37:57;0.30;;;0.30;;
30729;SDS011;17476;48.458;7.928;2023-04-12T00:40:23;0.30;;;0.30;;
30729;SDS011;17476;48.458;7.928;2023-04-12T00:42:49;0.30;;;0.30;;
30729;SDS011;17476;48.458;7.928;2023-04-12T00:45:15;0.30;;;0.30;;
30729;SDS011;17476;48.458;7.928;2023-04-12T00:47:41;0.30;;;0.30;;
30729;SDS011;17476;48.458;7.928;2023-04-12T00:50:07;0.30;;;0.30;;
30729;SDS011;17476;48.458;7.928;2023-04-12T00:52:34;0.30;;;0.30;;
30729;SDS011;17476;48.458;7.928;2023-04-12T00:55:04;0.30;;;0.30;;
30729;SDS011;17476;48.458;7.928;2023-04-12T00:57:35;0.30;;;0.30;;
30729;SDS011;17476;48.458;7.928;2023-04-12T01:00:07;0.30;;;0.30;;
30729;SDS011;17476;48.458;7.928;2023-04-12T01:02:40;0.30;;;0.30;;
30729;SDS011;17476;48.458;7.928;2023-04-12T01:05:15;0.40;;;0.40;;
30729;SDS011;17476;48.458;7.928;2023-04-12T01:07:50;0.30;;;0.30;;
30729;SDS011;17476;48.458;7.928;2023-04-12T01:13:30;0.40;;;0.40;;
30729;SDS011;17476;48.458;7.928;2023-04-12T01:16:30;0.30;;;0.30;;
30729;SDS011;17476;48.458;7.928;2023-04-12T01:19:11;0.30;;;0.30;;
30729;SDS011;17476;48.458;7.928;2023-04-12T01:25:03;0.30;;;0.30;;
30729;SDS011;17476;48.458;7.928;2023-04-12T01:28:03;0.30;;;0.30;;
30729;SDS011;17476;48.458;7.928;2023-04-12T01:30:31;0.20;;;0.20;;
30729;SDS011;17476;48.458;7.928;2023-04-12T01:33:02;0.27;;;0.27;;
30729;SDS011;17476;48.458;7.928;2023-04-12T01:35:31;0.30;;;0.30;;
30729;SDS011;17476;48.458;7.928;2023-04-12T01:37:57;0.40;;;0.40;;
30729;SDS011;17476;48.458;7.928;2023-04-12T01:40:25;0.40;;;0.40;;
30729;SDS011;17476;48.458;7.928;2023-04-12T01:43:03;0.20;;;0.20;;
30729;SDS011;17476;48.458;7.928;2023-04-12T01:45:37;0.30;;;0.30;;
30729;SDS011;17476;48.458;7.928;2023-04-12T01:48:04;0.37;;;0.37;;
30729;SDS011;17476;48.458;7.928;2023-04-12T01:53:36;0.20;;;0.20;;
30729;SDS011;17476;48.458;7.928;2023-04-12T01:56:37;0.27;;;0.27;;
30729;SDS011;17476;48.458;7.928;2023-04-12T01:59:07;0.30;;;0.30;;
30729;SDS011;17476;48.458;7.928;2023-04-12T02:01:38;0.40;;;0.40;;
30729;SDS011;17476;48.458;7.928;2023-04-12T02:04:04;0.30;;;0.30;;
30729;SDS011;17476;48.458;7.928;2023-04-12T02:06:32;0.30;;;0.30;;
30729;SDS011;17476;48.458;7.928;2023-04-12T02:08:58;0.30;;;0.30;;
30729;SDS011;17476;48.458;7.928;2023-04-12T02:11:27;0.40;;;0.40;;
30729;SDS011;17476;48.458;7.928;2023-04-12T02:13:53;0.40;;;0.40;;
30729;SDS011;17476;48.458;7.928;2023-04-12T02:16:19;0.30;;;0.30;;
30729;SDS011;17476;48.458;7.928;2023-04-12T02:18:47;0.30;;;0.30;;
30729;SDS011;17476;48.458;7.928;2023-04-12T02:21:16;0.30;;;0.30;;
30729;SDS011;17476;48.458;7.928;2023-04-12T02:23:42;0.30;;;0.30;;
30729;SDS011;17476;48.458;7.928;2023-04-12T02:26:08;0.30;;;0.30;;
30729;SDS011;17476;48.458;7.928;2023-04-12T02:28:35;0.30;;;0.30;;
30729;SDS011;17476;48.458;7.928;2023-04-12T02:31:04;0.40;;;0.40;;
30729;SDS011;17476;48.458;7.928;2023-04-12T02:33:31;0.30;;;0.30;;
30729;SDS011;17476;48.458;7.928;2023-04-12T02:35:57;0.30;;;0.30;;
30729;SDS011;17476;48.458;7.928;2023-04-12T02:38:26;0.30;;;0.30;;
30729;SDS011;17476;48.458;7.928;2023-04-12T02:40:53;0.30;;;0.30;;
30729;SDS011;17476;48.458;7.928;2023-04-12T02:43:19;0.30;;;0.30;;
30729;SDS011;17476;48.458;7.928;2023-04-12T02:45:45;0.30;;;0.30;;
30729;SDS011;17476;48.458;7.928;2023-04-12T02:48:12;0.40;;;0.40;;
30729;SDS011;17476;48.458;7.928;2023-04-12T02:50:38;0.30;;;0.30;;
30729;SDS011;17476;48.458;7.928;2023-04-12T02:53:03;0.30;;;0.30;;
30729;SDS011;17476;48.458;7.928;2023-04-12T02:55:29;0.30;;;0.30;;
30729;SDS011;17476;48.458;7.928;2023-04-12T02:57:55;0.30;;;0.30;;
30729;SDS011;17476;48.458;7.928;2023-04-12T03:00:21;0.30;;;0.30;;
30729;SDS011;17476;48.458;7.928;2023-04-12T03:02:48;0.30;;;0.30;;
30729;SDS011;17476;48.458;7.928;2023-04-12T03:05:15;0.40;;;0.40;;
30729;SDS011;17476;48.458;7.928;2023-04-12T03:07:41;0.30;;;0.30;;
30729;SDS011;17476;48.458;7.928;2023-04-12T03:10:08;0.40;;;0.40;;
30729;SDS011;17476;48.458;7.928;2023-04-12T03:12:37;0.33;;;0.33;;
30729;SDS011;17476;48.458;7.928;2023-04-12T03:15:03;0.37;;;0.37;;
30729;SDS011;17476;48.458;7.928;2023-04-12T03:17:29;0.30;;;0.30;;
30729;SDS011;17476;48.458;7.928;2023-04-12T03:20:02;0.40;;;0.40;;
30729;SDS011;17476;48.458;7.928;2023-04-12T03:22:33;0.30;;;0.30;;
30729;SDS011;17476;48.458;7.928;2023-04-12T03:25:01;0.30;;;0.30;;
30729;SDS011;17476;48.458;7.928;2023-04-12T03:27:29;0.30;;;0.30;;
30729;SDS011;17476;48.458;7.928;2023-04-12T03:29:54;0.30;;;0.30;;
30729;SDS011;17476;48.458;7.928;2023-04-12T03:32:20;0.30;;;0.30;;
30729;SDS011;17476;48.458;7.928;2023-04-12T03:34:48;0.40;;;0.40;;
30729;SDS011;17476;48.458;7.928;2023-04-12T03:37:13;0.40;;;0.40;;
30729;SDS011;17476;48.458;7.928;2023-04-12T03:39:39;0.30;;;0.30;;
30729;SDS011;17476;48.458;7.928;2023-04-12T03:42:05;0.30;;;0.30;;
30729;SDS011;17476;48.458;7.928;2023-04-12T03:44:31;0.30;;;0.30;;
30729;SDS011;17476;48.458;7.928;2023-04-12T03:46:57;0.30;;;0.30;;
30729;SDS011;17476;48.458;7.928;2023-04-12T03:49:22;0.30;;;0.30;;
30729;SDS011;17476;48.458;7.928;2023-04-12T03:51:48;0.30;;;0.30;;
30729;SDS011;17476;48.458;7.928;2023-04-12T03:54:15;0.30;;;0.30;;
30729;SDS011;17476;48.458;7.928;2023-04-12T03:56:41;0.30;;;0.30;;
30729;SDS011;17476;48.458;7.928;2023-04-12T03:59:06;0.30;;;0.30;;
30729;SDS011;17476;48.458;7.928;2023-04-12T04:01:33;0.30;;;0.30;;
30729;SDS011;17476;48.458;7.928;2023-04-12T04:03:59;0.30;;;0.30;;
30729;SDS011;17476;48.458;7.928;2023-04-12T04:06:25;0.33;;;0.33;;
30729;SDS011;17476;48.458;7.928;2023-04-12T04:08:54;0.30;;;0.30;;
30729;SDS011;17476;48.458;7.928;2023-04-12T04:11:21;0.30;;;0.30;;
30729;SDS011;17476;48.458;7.928;2023-04-12T04:13:48;0.40;;;0.40;;
30729;SDS011;17476;48.458;7.928;2023-04-12T04:16:14;0.40;;;0.40;;
30729;SDS011;17476;48.458;7.928;2023-04-12T04:18:40;0.40;;;0.40;;
30729;SDS011;17476;48.458;7.928;2023-04-12T04:21:06;0.40;;;0.40;;
30729;SDS011;17476;48.458;7.928;2023-04-12T04:23:32;0.30;;;0.30;;
30729;SDS011;17476;48.458;7.928;2023-04-12T04:26:02;0.40;;;0.40;;
30729;SDS011;17476;48.458;7.928;2023-04-12T04:28:38;0.30;;;0.30;;
30729;SDS011;17476;48.458;7.928;2023-04-12T04:31:09;0.30;;;0.30;;
30729;SDS011;17476;48.458;7.928;2023-04-12T04:33:36;0.37;;;0.37;;
30729;SDS011;17476;48.458;7.928;2023-04-12T04:36:04;0.30;;;0.30;;
30729;SDS011;17476;48.458;7.928;2023-04-12T04:38:33;0.30;;;0.30;;
30729;SDS011;17476;48.458;7.928;2023-04-12T04:41:00;0.30;;;0.30;;
30729;SDS011;17476;48.458;7.928;2023-04-12T04:43:27;0.30;;;0.30;;
30729;SDS011;17476;48.458;7.928;2023-04-12T04:45:58;0.30;;;0.30;;
30729;SDS011;17476;48.458;7.928;2023-04-12T04:48:25;0.30;;;0.30;;
30729;SDS011;17476;48.458;7.928;2023-04-12T04:50:51;0.30;;;0.30;;
30729;SDS011;17476;48.458;7.928;2023-04-12T04:53:18;0.30;;;0.30;;
30729;SDS011;17476;48.458;7.928;2023-04-12T04:55:46;0.30;;;0.30;;
30729;SDS011;17476;48.458;7.928;2023-04-12T04:58:12;0.30;;;0.30;;
30729;SDS011;17476;48.458;7.928;2023-04-12T05:00:40;0.37;;;0.37;;
30729;SDS011;17476;48.458;7.928;2023-04-12T05:03:09;0.30;;;0.30;;
30729;SDS011;17476;48.458;7.928;2023-04-12T05:05:36;0.30;;;0.30;;
30729;SDS011;17476;48.458;7.928;2023-04-12T05:08:03;0.40;;;0.40;;
30729;SDS011;17476;48.458;7.928;2023-04-12T05:10:29;0.40;;;0.40;;
30729;SDS011;17476;48.458;7.928;2023-04-12T05:12:55;0.20;;;0.20;;
30729;SDS011;17476;48.458;7.928;2023-04-12T05:15:21;0.30;;;0.30;;
30729;SDS011;17476;48.458;7.928;2023-04-12T05:17:46;0.30;;;0.30;;
30729;SDS011;17476;48.458;7.928;2023-04-12T05:20:12;0.30;;;0.30;;
30729;SDS011;17476;48.458;7.928;2023-04-12T05:22:38;0.30;;;0.30;;
30729;SDS011;17476;48.458;7.928;2023-04-12T05:25:04;0.40;;;0.40;;
30729;SDS011;17476;48.458;7.928;2023-04-12T05:27:30;0.30;;;0.30;;
30729;SDS011;17476;48.458;7.928;2023-04-12T05:29:56;0.30;;;0.30;;
30729;SDS011;17476;48.458;7.928;2023-04-12T05:32:25;0.30;;;0.30;;
30729;SDS011;17476;48.458;7.928;2023-04-12T05:34:51;0.30;;;0.30;;
30729;SDS011;17476;48.458;7.928;2023-04-12T05:37:17;0.30;;;0.30;;
30729;SDS011;17476;48.458;7.928;2023-04-12T05:39:43;0.30;;;0.30;;
30729;SDS011;17476;48.458;7.928;2023-04-12T05:42:08;0.40;;;0.40;;
30729;SDS011;17476;48.458;7.928;2023-04-12T05:44:34;0.20;;;0.20;;
30729;SDS011;17476;48.458;7.928;2023-04-12T05:47:03;0.30;;;0.30;;
30729;SDS011;17476;48.458;7.928;2023-04-12T05:49:29;0.20;;;0.20;;
30729;SDS011;17476;48.458;7.928;2023-04-12T05:51:58;0.30;;;0.30;;
30729;SDS011;17476;48.458;7.928;2023-04-12T05:54:24;0.30;;;0.30;;
30729;SDS011;17476;48.458;7.928;2023-04-12T05:56:50;0.30;;;0.30;;
30729;SDS011;17476;48.458;7.928;2023-04-12T05:59:18;0.30;;;0.30;;
30729;SDS011;17476;48.458;7.928;2023-04-12T06:01:44;0.30;;;0.30;;
30729;SDS011;17476;48.458;7.928;2023-04-12T06:04:10;0.30;;;0.30;;
30729;SDS011;17476;48.458;7.928;2023-04-12T06:06:36;0.30;;;0.30;;
30729;SDS011;17476;48.458;7.928;2023-04-12T06:09:02;0.30;;;0.30;;
30729;SDS011;17476;48.458;7.928;2023-04-12T06:11:29;0.20;;;0.20;;
30729;SDS011;17476;48.458;7.928;2023-04-12T06:14:01;0.30;;;0.30;;
30729;SDS011;17476;48.458;7.928;2023-04-12T06:16:28;0.30;;;0.30;;
30729;SDS011;17476;48.458;7.928;2023-04-12T06:18:53;0.30;;;0.30;;
30729;SDS011;17476;48.458;7.928;2023-04-12T06:21:19;0.30;;;0.30;;
30729;SDS011;17476;48.458;7.928;2023-04-12T06:23:45;0.33;;;0.33;;
30729;SDS011;17476;48.458;7.928;2023-04-12T06:26:11;0.20;;;0.20;;
30729;SDS011;17476;48.458;7.928;2023-04-12T06:28:37;0.20;;;0.20;;
30729;SDS011;17476;48.458;7.928;2023-04-12T06:31:03;0.40;;;0.40;;
30729;SDS011;17476;48.458;7.928;2023-04-12T06:33:29;0.30;;;0.30;;
30729;SDS011;17476;48.458;7.928;2023-04-12T06:35:55;0.30;;;0.30;;
30729;SDS011;17476;48.458;7.928;2023-04-12T06:38:21;0.30;;;0.30;;
30729;SDS011;17476;48.458;7.928;2023-04-12T06:40:47;0.30;;;0.30;;
30729;SDS011;17476;48.458;7.928;2023-04-12T06:43:14;0.30;;;0.30;;
30729;SDS011;17476;48.458;7.928;2023-04-12T06:45:43;0.30;;;0.30;;
30729;SDS011;17476;48.458;7.928;2023-04-12T06:48:10;0.30;;;0.30;;
30729;SDS011;17476;48.458;7.928;2023-04-12T06:50:35;0.30;;;0.30;;
30729;SDS011;17476;48.458;7.928;2023-04-12T06:53:01;0.30;;;0.30;;
30729;SDS011;17476;48.458;7.928;2023-04-12T06:55:27;0.30;;;0.30;;
30729;SDS011;17476;48.458;7.928;2023-04-12T06:57:53;0.30;;;0.30;;
30729;SDS011;17476;48.458;7.928;2023-04-12T07:00:19;0.23;;;0.23;;
30729;SDS011;17476;48.458;7.928;2023-04-12T07:02:45;0.30;;;0.30;;
30729;SDS011;17476;48.458;7.928;2023-04-12T07:05:12;0.30;;;0.30;;
30729;SDS011;17476;48.458;7.928;2023-04-12T07:07:38;0.20;;;0.20;;
30729;SDS011;17476;48.458;7.928;2023-04-12T07:10:04;0.30;;;0.30;;
30729;SDS011;17476;48.458;7.928;2023-04-12T07:12:30;0.30;;;0.30;;
30729;SDS011;17476;48.458;7.928;2023-04-12T07:14:56;0.30;;;0.30;;
30729;SDS011;17476;48.458;7.928;2023-04-12T07:17:22;0.30;;;0.30;;
30729;SDS011;17476;48.458;7.928;2023-04-12T07:19:51;0.30;;;0.30;;
30729;SDS011;17476;48.458;7.928;2023-04-12T07:22:18;0.30;;;0.30;;
30729;SDS011;17476;48.458;7.928;2023-04-12T07:24:44;0.20;;;0.20;;
30729;SDS011;17476;48.458;7.928;2023-04-12T07:27:10;0.30;;;0.30;;
30729;SDS011;17476;48.458;7.928;2023-04-12T07:29:35;0.30;;;0.30;;
30729;SDS011;17476;48.458;7.928;2023-04-12T07:32:01;0.30;;;0.30;;
30729;SDS011;17476;48.458;7.928;2023-04-12T07:34:28;0.30;;;0.30;;
30729;SDS011;17476;48.458;7.928;2023-04-12T07:36:54;0.30;;;0.30;;
30729;SDS011;17476;48.458;7.928;2023-04-12T07:39:20;0.30;;;0.30;;
30729;SDS011;17476;48.458;7.928;2023-04-12T07:41:47;0.20;;;0.20;;
30729;SDS011;17476;48.458;7.928;2023-04-12T07:44:14;0.30;;;0.30;;
30729;SDS011;17476;48.458;7.928;2023-04-12T07:46:39;0.30;;;0.30;;
30729;SDS011;17476;48.458;7.928;2023-04-12T07:49:06;0.30;;;0.30;;
30729;SDS011;17476;48.458;7.928;2023-04-12T07:51:34;0.33;;;0.33;;
30729;SDS011;17476;48.458;7.928;2023-04-12T07:54:01;0.20;;;0.20;;
30729;SDS011;17476;48.458;7.928;2023-04-12T07:56:27;0.30;;;0.30;;
30729;SDS011;17476;48.458;7.928;2023-04-12T07:58:53;0.30;;;0.30;;
30729;SDS011;17476;48.458;7.928;2023-04-12T08:01:19;0.20;;;0.20;;
30729;SDS011;17476;48.458;7.928;2023-04-12T08:03:45;0.23;;;0.23;;
30729;SDS011;17476;48.458;7.928;2023-04-12T08:06:11;0.20;;;0.20;;
30729;SDS011;17476;48.458;7.928;2023-04-12T08:08:37;0.30;;;0.30;;
30729;SDS011;17476;48.458;7.928;2023-04-12T08:11:03;0.30;;;0.30;;
30729;SDS011;17476;48.458;7.928;2023-04-12T08:13:31;0.20;;;0.20;;
30729;SDS011;17476;48.458;7.928;2023-04-12T08:15:58;0.20;;;0.20;;
30729;SDS011;17476;48.458;7.928;2023-04-12T08:18:24;0.30;;;0.30;;
30729;SDS011;17476;48.458;7.928;2023-04-12T08:20:50;0.30;;;0.30;;
30729;SDS011;17476;48.458;7.928;2023-04-12T08:23:16;0.30;;;0.30;;
30729;SDS011;17476;48.458;7.928;2023-04-12T08:25:42;0.30;;;0.30;;
30729;SDS011;17476;48.458;7.928;2023-04-12T08:28:08;0.20;;;0.20;;
30729;SDS011;17476;48.458;7.928;2023-04-12T08:30:34;0.20;;;0.20;;
30729;SDS011;17476;48.458;7.928;2023-04-12T08:33:00;0.20;;;0.20;;
30729;SDS011;17476;48.458;7.928;2023-04-12T08:35:26;0.20;;;0.20;;
30729;SDS011;17476;48.458;7.928;2023-04-12T08:37:52;0.30;;;0.30;;
30729;SDS011;17476;48.458;7.928;2023-04-12T08:40:18;0.20;;;0.20;;
30729;SDS011;17476;48.458;7.928;2023-04-12T08:42:46;0.20;;;0.20;;
30729;SDS011;17476;48.458;7.928;2023-04-12T08:45:12;0.30;;;0.30;;
30729;SDS011;17476;48.458;7.928;2023-04-12T08:47:39;0.20;;;0.20;;
30729;SDS011;17476;48.458;7.928;2023-04-12T08:50:08;0.20;;;0.20;;
30729;SDS011;17476;48.458;7.928;2023-04-12T08:52:37;0.20;;;0.20;;
30729;SDS011;17476;48.458;7.928;2023-04-12T08:55:05;0.20;;;0.20;;
30729;SDS011;17476;48.458;7.928;2023-04-12T08:57:33;0.30;;;0.30;;
30729;SDS011;17476;48.458;7.928;2023-04-12T09:00:01;0.20;;;0.20;;
30729;SDS011;17476;48.458;7.928;2023-04-12T09:02:29;0.23;;;0.23;;
30729;SDS011;17476;48.458;7.928;2023-04-12T09:04:55;0.30;;;0.30;;
30729;SDS011;17476;48.458;7.928;2023-04-12T09:07:22;0.20;;;0.20;;
30729;SDS011;17476;48.458;7.928;2023-04-12T09:09:51;0.20;;;0.20;;
30729;SDS011;17476;48.458;7.928;2023-04-12T09:12:18;0.20;;;0.20;;
30729;SDS011;17476;48.458;7.928;2023-04-12T09:14:46;0.20;;;0.20;;
30729;SDS011;17476;48.458;7.928;2023-04-12T09:17:22;0.30;;;0.30;;
30729;SDS011;17476;48.458;7.928;2023-04-12T09:19:50;0.20;;;0.20;;
30729;SDS011;17476;48.458;7.928;2023-04-12T09:22:17;0.10;;;0.10;;
30729;SDS011;17476;48.458;7.928;2023-04-12T09:24:46;0.20;;;0.20;;
30729;SDS011;17476;48.458;7.928;2023-04-12T09:27:17;0.20;;;0.20;;
30729;SDS011;17476;48.458;7.928;2023-04-12T09:29:46;0.10;;;0.10;;
30729;SDS011;17476;48.458;7.928;2023-04-12T09:32:25;0.10;;;0.10;;
30729;SDS011;17476;48.458;7.928;2023-04-12T09:34:54;0.20;;;0.20;;
30729;SDS011;17476;48.458;7.928;2023-04-12T09:37:23;0.20;;;0.20;;
30729;SDS011;17476;48.458;7.928;2023-04-12T09:40:06;0.20;;;0.20;;
30729;SDS011;17476;48.458;7.928;2023-04-12T09:42:34;0.20;;;0.20;;
30729;SDS011;17476;48.458;7.928;2023-04-12T09:45:23;0.20;;;0.20;;
30729;SDS011;17476;48.458;7.928;2023-04-12T09:47:50;0.30;;;0.30;;
30729;SDS011;17476;48.458;7.928;2023-04-12T09:50:21;0.20;;;0.20;;
30729;SDS011;17476;48.458;7.928;2023-04-12T09:52:55;0.20;;;0.20;;
30729;SDS011;17476;48.458;7.928;2023-04-12T09:55:22;0.23;;;0.23;;
30729;SDS011;17476;48.458;7.928;2023-04-12T09:57:50;0.10;;;0.10;;
30729;SDS011;17476;48.458;7.928;2023-04-12T10:00:18;0.20;;;0.20;;
30729;SDS011;17476;48.458;7.928;2023-04-12T10:02:48;0.20;;;0.20;;
30729;SDS011;17476;48.458;7.928;2023-04-12T10:05:16;0.20;;;0.20;;
30729;SDS011;17476;48.458;7.928;2023-04-12T10:07:49;0.23;;;0.23;;
30729;SDS011;17476;48.458;7.928;2023-04-12T10:10:16;0.30;;;0.30;;
30729;SDS011;17476;48.458;7.928;2023-04-12T10:12:44;0.10;;;0.10;;
30729;SDS011;17476;48.458;7.928;2023-04-12T10:15:12;0.20;;;0.20;;
30729;SDS011;17476;48.458;7.928;2023-04-12T10:17:42;0.13;;;0.13;;
30729;SDS011;17476;48.458;7.928;2023-04-12T10:20:13;0.20;;;0.20;;
30729;SDS011;17476;48.458;7.928;2023-04-12T10:22:42;0.20;;;0.20;;
30729;SDS011;17476;48.458;7.928;2023-04-12T10:25:12;0.20;;;0.20;;
30729;SDS011;17476;48.458;7.928;2023-04-12T10:27:44;0.20;;;0.20;;
30729;SDS011;17476;48.458;7.928;2023-04-12T10:30:21;0.30;;;0.30;;
30729;SDS011;17476;48.458;7.928;2023-04-12T10:35:47;0.20;;;0.20;;
30729;SDS011;17476;48.458;7.928;2023-04-12T10:38:14;0.20;;;0.20;;
30729;SDS011;17476;48.458;7.928;2023-04-12T10:43:34;0.20;;;0.20;;
30729;SDS011;17476;48.458;7.928;2023-04-12T10:46:00;0.20;;;0.20;;
30729;SDS011;17476;48.458;7.928;2023-04-12T10:53:53;0.10;;;0.10;;
30729;SDS011;17476;48.458;7.928;2023-04-12T10:56:45;0.30;;;0.30;;
30729;SDS011;17476;48.458;7.928;2023-04-12T10:59:12;0.10;;;0.10;;
30729;SDS011;17476;48.458;7.928;2023-04-12T11:01:39;0.10;;;0.10;;
30729;SDS011;17476;48.458;7.928;2023-04-12T11:09:28;0.13;;;0.13;;
30729;SDS011;17476;48.458;7.928;2023-04-12T11:12:09;0.20;;;0.20;;
30729;SDS011;17476;48.458;7.928;2023-04-12T11:14:44;0.10;;;0.10;;
30729;SDS011;17476;48.458;7.928;2023-04-12T11:19:38;0.20;;;0.20;;
30729;SDS011;17476;48.458;7.928;2023-04-12T11:22:11;0.10;;;0.10;;
30729;SDS011;17476;48.458;7.928;2023-04-12T11:24:50;0.17;;;0.17;;
30729;SDS011;17476;48.458;7.928;2023-04-12T11:27:19;0.20;;;0.20;;
30729;SDS011;17476;48.458;7.928;2023-04-12T11:29:47;0.10;;;0.10;;
30729;SDS011;17476;48.458;7.928;2023-04-12T11:32:19;0.20;;;0.20;;
30729;SDS011;17476;48.458;7.928;2023-04-12T11:34:52;0.20;;;0.20;;
30729;SDS011;17476;48.458;7.928;2023-04-12T11:37:19;0.10;;;0.10;;
30729;SDS011;17476;48.458;7.928;2023-04-12T11:39:46;0.23;;;0.23;;
30729;SDS011;17476;48.458;7.928;2023-04-12T11:42:21;0.10;;;0.10;;
30729;SDS011;17476;48.458;7.928;2023-04-12T11:44:49;0.20;;;0.20;;
30729;SDS011;17476;48.458;7.928;2023-04-12T11:47:17;0.10;;;0.10;;
30729;SDS011;17476;48.458;7.928;2023-04-12T11:49:48;0.30;;;0.30;;
30729;SDS011;17476;48.458;7.928;2023-04-12T11:52:30;0.20;;;0.20;;
30729;SDS011;17476;48.458;7.928;2023-04-12T11:55:00;0.10;;;0.10;;
30729;SDS011;17476;48.458;7.928;2023-04-12T11:57:30;0.20;;;0.20;;
30729;SDS011;17476;48.458;7.928;2023-04-12T11:59:57;0.20;;;0.20;;
30729;SDS011;17476;48.458;7.928;2023-04-12T12:02:25;0.20;;;0.20;;
30729;SDS011;17476;48.458;7.928;2023-04-12T12:04:52;0.10;;;0.10;;
30729;SDS011;17476;48.458;7.928;2023-04-12T12:07:20;0.20;;;0.20;;
30729;SDS011;17476;48.458;7.928;2023-04-12T12:09:46;0.10;;;0.10;;
30729;SDS011;17476;48.458;7.928;2023-04-12T12:12:14;0.10;;;0.10;;
30729;SDS011;17476;48.458;7.928;2023-04-12T12:14:42;0.10;;;0.10;;
30729;SDS011;17476;48.458;7.928;2023-04-12T12:17:10;0.10;;;0.10;;
30729;SDS011;17476;48.458;7.928;2023-04-12T12:19:39;0.10;;;0.10;;
30729;SDS011;17476;48.458;7.928;2023-04-12T12:22:14;0.07;;;0.07;;
30729;SDS011;17476;48.458;7.928;2023-04-12T12:29:59;0.20;;;0.20;;
30729;SDS011;17476;48.458;7.928;2023-04-12T12:32:31;0.20;;;0.20;;
30729;SDS011;17476;48.458;7.928;2023-04-12T12:35:02;0.10;;;0.10;;
30729;SDS011;17476;48.458;7.928;2023-04-12T12:37:35;0.20;;;0.20;;
30729;SDS011;17476;48.458;7.928;2023-04-12T12:40:02;0.20;;;0.20;;
30729;SDS011;17476;48.458;7.928;2023-04-12T12:45:20;0.20;;;0.20;;
30729;SDS011;17476;48.458;7.928;2023-04-12T12:47:52;0.10;;;0.10;;
30729;SDS011;17476;48.458;7.928;2023-04-12T12:50:32;0.20;;;0.20;;
30729;SDS011;17476;48.458;7.928;2023-04-12T12:52:59;0.20;;;0.20;;
30729;SDS011;17476;48.458;7.928;2023-04-12T12:55:28;0.20;;;0.20;;
30729;SDS011;17476;48.458;7.928;2023-04-12T12:57:55;0.30;;;0.30;;
30729;SDS011;17476;48.458;7.928;2023-04-12T13:00:22;0.20;;;0.20;;
30729;SDS011;17476;48.458;7.928;2023-04-12T13:02:51;0.10;;;0.10;;
30729;SDS011;17476;48.458;7.928;2023-04-12T13:05:17;0.20;;;0.20;;
30729;SDS011;17476;48.458;7.928;2023-04-12T13:07:45;0.20;;;0.20;;
30729;SDS011;17476;48.458;7.928;2023-04-12T13:10:11;0.20;;;0.20;;
30729;SDS011;17476;48.458;7.928;2023-04-12T13:12:38;0.30;;;0.30;;
30729;SDS011;17476;48.458;7.928;2023-04-12T13:15:04;0.20;;;0.20;;
30729;SDS011;17476;48.458;7.928;2023-04-12T13:17:31;0.20;;;0.20;;
30729;SDS011;17476;48.458;7.928;2023-04-12T13:19:57;0.20;;;0.20;;
30729;SDS011;17476;48.458;7.928;2023-04-12T13:22:23;0.10;;;0.10;;
30729;SDS011;17476;48.458;7.928;2023-04-12T13:24:50;0.10;;;0.10;;
30729;SDS011;17476;48.458;7.928;2023-04-12T13:27:16;0.10;;;0.10;;
30729;SDS011;17476;48.458;7.928;2023-04-12T13:29:42;0.10;;;0.10;;
30729;SDS011;17476;48.458;7.928;2023-04-12T13:32:08;0.10;;;0.10;;
30729;SDS011;17476;48.458;7.928;2023-04-12T13:34:34;0.20;;;0.20;;
30729;SDS011;17476;48.458;7.928;2023-04-12T13:37:00;0.20;;;0.20;;
30729;SDS011;17476;48.458;7.928;2023-04-12T13:39:26;0.13;;;0.13;;
30729;SDS011;17476;48.458;7.928;2023-04-12T13:41:52;0.20;;;0.20;;
30729;SDS011;17476;48.458;7.928;2023-04-12T13:44:18;0.10;;;0.10;;
30729;SDS011;17476;48.458;7.928;2023-04-12T13:46:44;0.17;;;0.17;;
30729;SDS011;17476;48.458;7.928;2023-04-12T13:49:10;0.10;;;0.10;;
30729;SDS011;17476;48.458;7.928;2023-04-12T13:51:36;0.10;;;0.10;;
30729;SDS011;17476;48.458;7.928;2023-04-12T13:54:02;0.10;;;0.10;;
30729;SDS011;17476;48.458;7.928;2023-04-12T13:56:28;0.10;;;0.10;;
30729;SDS011;17476;48.458;7.928;2023-04-12T13:58:55;0.10;;;0.10;;
30729;SDS011;17476;48.458;7.928;2023-04-12T14:01:20;0.10;;;0.10;;
30729;SDS011;17476;48.458;7.928;2023-04-12T14:03:48;0.10;;;0.10;;
30729;SDS011;17476;48.458;7.928;2023-04-12T14:06:15;0.10;;;0.10;;
30729;SDS011;17476;48.458;7.928;2023-04-12T14:08:41;0.10;;;0.10;;
30729;SDS011;17476;48.458;7.928;2023-04-12T14:11:06;0.20;;;0.20;;
30729;SDS011;17476;48.458;7.928;2023-04-12T14:13:32;0.10;;;0.10;;
30729;SDS011;17476;48.458;7.928;2023-04-12T14:15:58;0.10;;;0.10;;
30729;SDS011;17476;48.458;7.928;2023-04-12T14:18:24;0.20;;;0.20;;
30729;SDS011;17476;48.458;7.928;2023-04-12T14:20:50;0.20;;;0.20;;
30729;SDS011;17476;48.458;7.928;2023-04-12T14:23:21;0.20;;;0.20;;
30729;SDS011;17476;48.458;7.928;2023-04-12T14:25:49;0.10;;;0.10;;
30729;SDS011;17476;48.458;7.928;2023-04-12T14:28:15;0.20;;;0.20;;
30729;SDS011;17476;48.458;7.928;2023-04-12T14:30:45;0.10;;;0.10;;
30729;SDS011;17476;48.458;7.928;2023-04-12T14:33:14;0.10;;;0.10;;
30729;SDS011;17476;48.458;7.928;2023-04-12T14:35:47;0.17;;;0.17;;
30729;SDS011;17476;48.458;7.928;2023-04-12T14:38:20;0.10;;;0.10;;
30729;SDS011;17476;48.458;7.928;2023-04-12T14:40:57;0.20;;;0.20;;
30729;SDS011;17476;48.458;7.928;2023-04-12T14:43:23;0.20;;;0.20;;
30729;SDS011;17476;48.458;7.928;2023-04-12T14:45:49;0.20;;;0.20;;
30729;SDS011;17476;48.458;7.928;2023-04-12T14:48:15;0.20;;;0.20;;
30729;SDS011;17476;48.458;7.928;2023-04-12T14:50:41;0.23;;;0.23;;
30729;SDS011;17476;48.458;7.928;2023-04-12T14:53:06;0.10;;;0.10;;
30729;SDS011;17476;48.458;7.928;2023-04-12T14:55:33;0.30;;;0.30;;
30729;SDS011;17476;48.458;7.928;2023-04-12T14:57:59;0.10;;;0.10;;
30729;SDS011;17476;48.458;7.928;2023-04-12T15:00:25;0.20;;;0.20;;
30729;SDS011;17476;48.458;7.928;2023-04-12T15:02:53;0.10;;;0.10;;
30729;SDS011;17476;48.458;7.928;2023-04-12T15:05:19;0.10;;;0.10;;
30729;SDS011;17476;48.458;7.928;2023-04-12T15:07:45;0.20;;;0.20;;
30729;SDS011;17476;48.458;7.928;2023-04-12T15:10:11;0.20;;;0.20;;
30729;SDS011;17476;48.458;7.928;2023-04-12T15:12:39;0.20;;;0.20;;
30729;SDS011;17476;48.458;7.928;2023-04-12T15:15:05;0.10;;;0.10;;
30729;SDS011;17476;48.458;7.928;2023-04-12T15:17:32;0.10;;;0.10;;
30729;SDS011;17476;48.458;7.928;2023-04-12T15:19:58;0.17;;;0.17;;
30729;SDS011;17476;48.458;7.928;2023-04-12T15:22:33;0.20;;;0.20;;
30729;SDS011;17476;48.458;7.928;2023-04-12T15:25:00;0.17;;;0.17;;
30729;SDS011;17476;48.458;7.928;2023-04-12T15:27:26;0.20;;;0.20;;
30729;SDS011;17476;48.458;7.928;2023-04-12T15:29:54;0.20;;;0.20;;